X  Sluiten METAR luchtvaart weer gegevens      EHVK Volkel Air Base
Temperatuur
7°C Temperatuur
0°C Dauwpunt
61% Vochtigheid



Wind
19 KM/U
12 MPH
5 M/S
10 KTS



360°
Noord
Huidig weer

Wat bewolking Wat bewolking
Luchtdruk 1028.92 (hPa) - 30.38 (inHg)
Zicht 6.2 (mijl) - 10 (km)
Vliegveld
Vliegveld code EHVK

Locatie : Volkel Air Base
Afstand: 28 (km)

Metar:
EHVK 141655Z AUTO 36010KT 320V030 9999 FEW086 SCT099 07/M00 Q1029 BLU

Tijd: 14-04-2021 18:55 CEST